sensor_id;sensor_type;location;lat;lon;timestamp;pressure;altitude;pressure_sealevel;temperature;humidity
46718;BME280;32448;44.960;-0.698;2023-05-12T00:00:44;101603.94;;;8.70;100.00
46718;BME280;32448;44.960;-0.698;2023-05-12T00:03:11;101603.75;;;8.66;100.00
46718;BME280;32448;44.960;-0.698;2023-05-12T00:05:38;101604.56;;;8.65;100.00
46718;BME280;32448;44.960;-0.698;2023-05-12T00:08:10;101598.47;;;8.64;100.00
46718;BME280;32448;44.960;-0.698;2023-05-12T00:10:37;101599.50;;;8.68;100.00
46718;BME280;32448;44.960;-0.698;2023-05-12T00:13:05;101598.00;;;8.74;100.00
46718;BME280;32448;44.960;-0.698;2023-05-12T00:15:32;101601.38;;;8.72;100.00
46718;BME280;32448;44.960;-0.698;2023-05-12T00:17:59;101589.00;;;8.66;100.00
46718;BME280;32448;44.960;-0.698;2023-05-12T00:20:26;101586.34;;;8.65;100.00
46718;BME280;32448;44.960;-0.698;2023-05-12T00:26:22;101578.91;;;8.75;100.00
46718;BME280;32448;44.960;-0.698;2023-05-12T00:28:50;101579.88;;;8.77;100.00
46718;BME280;32448;44.960;-0.698;2023-05-12T00:31:17;101580.00;;;8.81;100.00
46718;BME280;32448;44.960;-0.698;2023-05-12T00:33:44;101577.03;;;8.71;100.00
46718;BME280;32448;44.960;-0.698;2023-05-12T00:36:11;101571.84;;;8.71;100.00
46718;BME280;32448;44.960;-0.698;2023-05-12T00:38:39;101576.16;;;8.71;100.00
46718;BME280;32448;44.960;-0.698;2023-05-12T00:41:07;101564.44;;;8.60;100.00
46718;BME280;32448;44.960;-0.698;2023-05-12T00:43:34;101567.06;;;8.60;100.00
46718;BME280;32448;44.960;-0.698;2023-05-12T00:46:03;101569.81;;;8.64;100.00
46718;BME280;32448;44.960;-0.698;2023-05-12T00:48:31;101564.44;;;8.60;100.00
46718;BME280;32448;44.960;-0.698;2023-05-12T00:50:59;101565.03;;;8.53;100.00
46718;BME280;32448;44.960;-0.698;2023-05-12T00:53:27;101561.38;;;8.48;100.00
46718;BME280;32448;44.960;-0.698;2023-05-12T00:56:11;101563.97;;;8.48;100.00
46718;BME280;32448;44.960;-0.698;2023-05-12T00:58:38;101553.31;;;8.42;100.00
46718;BME280;32448;44.960;-0.698;2023-05-12T01:01:06;101547.81;;;8.34;100.00
46718;BME280;32448;44.960;-0.698;2023-05-12T01:03:33;101544.31;;;8.33;100.00
46718;BME280;32448;44.960;-0.698;2023-05-12T01:06:22;101546.88;;;8.32;100.00
46718;BME280;32448;44.960;-0.698;2023-05-12T01:12:49;101551.19;;;8.31;100.00
46718;BME280;32448;44.960;-0.698;2023-05-12T01:15:22;101544.97;;;8.28;100.00
46718;BME280;32448;44.960;-0.698;2023-05-12T01:17:57;101537.91;;;8.25;100.00
46718;BME280;32448;44.960;-0.698;2023-05-12T01:20:28;101542.63;;;8.13;100.00
46718;BME280;32448;44.960;-0.698;2023-05-12T01:22:56;101542.44;;;8.09;100.00
46718;BME280;32448;44.960;-0.698;2023-05-12T01:28:26;101537.06;;;8.04;100.00
46718;BME280;32448;44.960;-0.698;2023-05-12T01:30:54;101535.47;;;8.08;100.00
46718;BME280;32448;44.960;-0.698;2023-05-12T01:33:21;101520.63;;;8.05;100.00
46718;BME280;32448;44.960;-0.698;2023-05-12T01:35:48;101528.25;;;8.00;100.00
46718;BME280;32448;44.960;-0.698;2023-05-12T01:38:16;101531.53;;;7.96;100.00
46718;BME280;32448;44.960;-0.698;2023-05-12T01:40:43;101525.91;;;7.86;100.00
46718;BME280;32448;44.960;-0.698;2023-05-12T01:43:10;101529.34;;;7.85;100.00
46718;BME280;32448;44.960;-0.698;2023-05-12T01:45:38;101518.31;;;7.90;100.00
46718;BME280;32448;44.960;-0.698;2023-05-12T01:48:08;101518.16;;;7.87;100.00
46718;BME280;32448;44.960;-0.698;2023-05-12T01:50:35;101522.41;;;7.84;100.00
46718;BME280;32448;44.960;-0.698;2023-05-12T01:53:07;101514.44;;;7.81;100.00
46718;BME280;32448;44.960;-0.698;2023-05-12T01:55:36;101511.84;;;7.81;100.00
46718;BME280;32448;44.960;-0.698;2023-05-12T01:58:04;101506.66;;;7.81;100.00
46718;BME280;32448;44.960;-0.698;2023-05-12T02:00:31;101508.44;;;7.82;100.00
46718;BME280;32448;44.960;-0.698;2023-05-12T02:03:00;101502.19;;;7.78;100.00
46718;BME280;32448;44.960;-0.698;2023-05-12T02:05:29;101500.47;;;7.79;100.00
46718;BME280;32448;44.960;-0.698;2023-05-12T02:07:57;101511.78;;;7.79;100.00
46718;BME280;32448;44.960;-0.698;2023-05-12T02:10:24;101504.09;;;7.82;100.00
46718;BME280;32448;44.960;-0.698;2023-05-12T02:12:52;101496.16;;;7.79;100.00
46718;BME280;32448;44.960;-0.698;2023-05-12T02:15:19;101504.09;;;7.82;100.00
46718;BME280;32448;44.960;-0.698;2023-05-12T02:17:47;101494.75;;;7.87;100.00
46718;BME280;32448;44.960;-0.698;2023-05-12T02:20:19;101493.09;;;7.89;100.00
46718;BME280;32448;44.960;-0.698;2023-05-12T02:22:47;101488.03;;;7.92;100.00
46718;BME280;32448;44.960;-0.698;2023-05-12T02:25:14;101487.34;;;7.98;100.00
46718;BME280;32448;44.960;-0.698;2023-05-12T02:27:42;101489.06;;;7.97;100.00
46718;BME280;32448;44.960;-0.698;2023-05-12T02:30:11;101487.41;;;7.99;100.00
46718;BME280;32448;44.960;-0.698;2023-05-12T02:32:38;101484.06;;;8.02;100.00
46718;BME280;32448;44.960;-0.698;2023-05-12T02:35:06;101485.06;;;8.06;100.00
46718;BME280;32448;44.960;-0.698;2023-05-12T02:37:35;101483.22;;;8.03;100.00
46718;BME280;32448;44.960;-0.698;2023-05-12T02:40:03;101485.00;;;8.04;100.00
46718;BME280;32448;44.960;-0.698;2023-05-12T02:42:30;101488.44;;;8.03;100.00
46718;BME280;32448;44.960;-0.698;2023-05-12T02:45:01;101483.94;;;7.99;100.00
46718;BME280;32448;44.960;-0.698;2023-05-12T02:47:28;101489.13;;;7.99;100.00
46718;BME280;32448;44.960;-0.698;2023-05-12T02:49:58;101488.09;;;7.94;100.00
46718;BME280;32448;44.960;-0.698;2023-05-12T02:52:26;101485.34;;;7.91;100.00
46718;BME280;32448;44.960;-0.698;2023-05-12T02:54:53;101481.59;;;7.84;100.00
46718;BME280;32448;44.960;-0.698;2023-05-12T02:57:21;101487.53;;;7.80;100.00
46718;BME280;32448;44.960;-0.698;2023-05-12T02:59:48;101486.09;;;7.66;100.00
46718;BME280;32448;44.960;-0.698;2023-05-12T03:02:16;101493.97;;;7.67;100.00
46718;BME280;32448;44.960;-0.698;2023-05-12T03:04:43;101492.84;;;7.61;100.00
46718;BME280;32448;44.960;-0.698;2023-05-12T03:07:10;101492.88;;;7.62;100.00
46718;BME280;32448;44.960;-0.698;2023-05-12T03:09:37;101488.41;;;7.58;100.00
46718;BME280;32448;44.960;-0.698;2023-05-12T03:12:05;101491.53;;;7.50;100.00
46718;BME280;32448;44.960;-0.698;2023-05-12T03:14:32;101491.38;;;7.47;100.00
46718;BME280;32448;44.960;-0.698;2023-05-12T03:16:59;101492.34;;;7.49;100.00
46718;BME280;32448;44.960;-0.698;2023-05-12T03:19:26;101484.41;;;7.46;100.00
46718;BME280;32448;44.960;-0.698;2023-05-12T03:21:53;101481.94;;;7.49;100.00
46718;BME280;32448;44.960;-0.698;2023-05-12T03:24:21;101487.06;;;7.47;100.00
46718;BME280;32448;44.960;-0.698;2023-05-12T03:26:48;101490.50;;;7.46;100.00
46718;BME280;32448;44.960;-0.698;2023-05-12T03:29:15;101493.63;;;7.38;100.00
46718;BME280;32448;44.960;-0.698;2023-05-12T03:31:42;101494.25;;;7.32;100.00
46718;BME280;32448;44.960;-0.698;2023-05-12T03:34:10;101484.72;;;7.32;100.00
46718;BME280;32448;44.960;-0.698;2023-05-12T03:36:37;101483.09;;;7.35;100.00
46718;BME280;32448;44.960;-0.698;2023-05-12T03:39:04;101481.38;;;7.35;100.00
46718;BME280;32448;44.960;-0.698;2023-05-12T03:41:32;101482.94;;;7.31;100.00
46718;BME280;32448;44.960;-0.698;2023-05-12T03:44:03;101487.25;;;7.31;100.00
46718;BME280;32448;44.960;-0.698;2023-05-12T03:46:43;101475.97;;;7.30;100.00
46718;BME280;32448;44.960;-0.698;2023-05-12T03:49:12;101477.69;;;7.30;100.00
46718;BME280;32448;44.960;-0.698;2023-05-12T03:51:39;101472.47;;;7.30;100.00
46718;BME280;32448;44.960;-0.698;2023-05-12T03:54:07;101475.03;;;7.28;100.00
46718;BME280;32448;44.960;-0.698;2023-05-12T03:56:34;101474.16;;;7.28;100.00
46718;BME280;32448;44.960;-0.698;2023-05-12T03:59:05;101469.50;;;7.21;100.00
46718;BME280;32448;44.960;-0.698;2023-05-12T04:01:32;101466.91;;;7.21;100.00
46718;BME280;32448;44.960;-0.698;2023-05-12T04:04:00;101475.53;;;7.20;100.00
46718;BME280;32448;44.960;-0.698;2023-05-12T04:06:32;101472.03;;;7.19;100.00
46718;BME280;32448;44.960;-0.698;2023-05-12T04:09:04;101473.00;;;7.21;100.00
46718;BME280;32448;44.960;-0.698;2023-05-12T04:11:31;101467.63;;;7.17;100.00
46718;BME280;32448;44.960;-0.698;2023-05-12T04:13:59;101464.94;;;7.15;100.00
46718;BME280;32448;44.960;-0.698;2023-05-12T04:16:27;101470.09;;;7.14;100.00
46718;BME280;32448;44.960;-0.698;2023-05-12T04:18:57;101467.41;;;7.12;100.00
46718;BME280;32448;44.960;-0.698;2023-05-12T04:21:24;101472.53;;;7.11;100.00
46718;BME280;32448;44.960;-0.698;2023-05-12T04:23:51;101470.31;;;6.99;100.00
46718;BME280;32448;44.960;-0.698;2023-05-12T04:26:20;101471.22;;;7.00;100.00
46718;BME280;32448;44.960;-0.698;2023-05-12T04:28:47;101468.38;;;6.93;100.00
46718;BME280;32448;44.960;-0.698;2023-05-12T04:31:15;101468.47;;;6.97;100.00
46718;BME280;32448;44.960;-0.698;2023-05-12T04:33:42;101471.28;;;7.01;100.00
46718;BME280;32448;44.960;-0.698;2023-05-12T04:36:13;101465.31;;;7.04;100.00
46718;BME280;32448;44.960;-0.698;2023-05-12T04:38:40;101463.34;;;6.98;100.00
46718;BME280;32448;44.960;-0.698;2023-05-12T04:41:09;101467.72;;;6.99;100.00
46718;BME280;32448;44.960;-0.698;2023-05-12T04:43:38;101469.44;;;6.99;100.00
46718;BME280;32448;44.960;-0.698;2023-05-12T04:46:11;101468.22;;;6.90;100.00
46718;BME280;32448;44.960;-0.698;2023-05-12T04:48:39;101470.81;;;6.90;100.00
46718;BME280;32448;44.960;-0.698;2023-05-12T04:51:09;101474.25;;;6.89;100.00
46718;BME280;32448;44.960;-0.698;2023-05-12T04:53:45;101474.16;;;6.88;100.00
46718;BME280;32448;44.960;-0.698;2023-05-12T04:56:15;101474.81;;;6.82;100.00
46718;BME280;32448;44.960;-0.698;2023-05-12T04:58:43;101474.44;;;6.75;100.00
46718;BME280;32448;44.960;-0.698;2023-05-12T05:01:10;101477.25;;;6.79;100.00
46718;BME280;32448;44.960;-0.698;2023-05-12T05:03:39;101481.50;;;6.77;100.00
46718;BME280;32448;44.960;-0.698;2023-05-12T05:06:07;101479.53;;;6.72;100.00
46718;BME280;32448;44.960;-0.698;2023-05-12T05:08:35;101477.00;;;6.73;100.00
46718;BME280;32448;44.960;-0.698;2023-05-12T05:14:50;101481.19;;;6.70;100.00
46718;BME280;32448;44.960;-0.698;2023-05-12T05:17:18;101495.31;;;6.76;100.00
46718;BME280;32448;44.960;-0.698;2023-05-12T05:19:46;101503.66;;;6.88;100.00
46718;BME280;32448;44.960;-0.698;2023-05-12T05:22:28;101498.44;;;6.88;100.00
46718;BME280;32448;44.960;-0.698;2023-05-12T05:24:55;101510.94;;;6.97;100.00
46718;BME280;32448;44.960;-0.698;2023-05-12T05:27:22;101509.13;;;6.94;100.00
46718;BME280;32448;44.960;-0.698;2023-05-12T05:29:50;101503.56;;;7.06;100.00
46718;BME280;32448;44.960;-0.698;2023-05-12T05:32:17;101512.72;;;6.98;100.00
46718;BME280;32448;44.960;-0.698;2023-05-12T05:34:44;101515.88;;;6.91;100.00
46718;BME280;32448;44.960;-0.698;2023-05-12T05:37:11;101520.94;;;6.88;100.00
46718;BME280;32448;44.960;-0.698;2023-05-12T05:39:39;101523.53;;;6.88;100.00
46718;BME280;32448;44.960;-0.698;2023-05-12T05:45:08;101523.25;;;7.01;100.00
46718;BME280;32448;44.960;-0.698;2023-05-12T05:47:37;101526.50;;;6.96;100.00
46718;BME280;32448;44.960;-0.698;2023-05-12T05:50:05;101526.59;;;6.99;100.00
46718;BME280;32448;44.960;-0.698;2023-05-12T05:52:35;101529.28;;;7.00;100.00
46718;BME280;32448;44.960;-0.698;2023-05-12T05:55:02;101526.25;;;7.10;100.00
46718;BME280;32448;44.960;-0.698;2023-05-12T05:57:30;101525.75;;;7.19;100.00
46718;BME280;32448;44.960;-0.698;2023-05-12T05:59:58;101530.94;;;7.19;100.00
46718;BME280;32448;44.960;-0.698;2023-05-12T06:02:26;101532.03;;;7.24;100.00
46718;BME280;32448;44.960;-0.698;2023-05-12T06:07:44;101518.28;;;7.26;100.00
46718;BME280;32448;44.960;-0.698;2023-05-12T06:10:11;101522.66;;;7.27;100.00
46718;BME280;32448;44.960;-0.698;2023-05-12T06:12:38;101523.88;;;7.36;100.00
46718;BME280;32448;44.960;-0.698;2023-05-12T06:15:07;101529.38;;;7.43;100.00
46718;BME280;32448;44.960;-0.698;2023-05-12T06:17:34;101524.25;;;7.45;100.00
46718;BME280;32448;44.960;-0.698;2023-05-12T06:20:01;101534.72;;;7.46;100.00
46718;BME280;32448;44.960;-0.698;2023-05-12T06:22:31;101535.78;;;7.51;100.00
46718;BME280;32448;44.960;-0.698;2023-05-12T06:25:00;101529.31;;;7.62;100.00
46718;BME280;32448;44.960;-0.698;2023-05-12T06:27:28;101539.28;;;7.73;100.00
46718;BME280;32448;44.960;-0.698;2023-05-12T06:29:55;101538.00;;;7.84;100.00
46718;BME280;32448;44.960;-0.698;2023-05-12T06:32:22;101534.94;;;7.94;100.00
46718;BME280;32448;44.960;-0.698;2023-05-12T06:34:49;101532.56;;;8.00;100.00
46718;BME280;32448;44.960;-0.698;2023-05-12T06:37:16;101531.97;;;8.07;100.00
46718;BME280;32448;44.960;-0.698;2023-05-12T06:39:43;101538.38;;;8.15;100.00
46718;BME280;32448;44.960;-0.698;2023-05-12T06:42:10;101528.25;;;8.23;100.00
46718;BME280;32448;44.960;-0.698;2023-05-12T06:44:40;101536.72;;;8.39;100.00
46718;BME280;32448;44.960;-0.698;2023-05-12T06:47:08;101533.88;;;8.56;100.00
46718;BME280;32448;44.960;-0.698;2023-05-12T06:49:35;101545.53;;;8.65;100.00
46718;BME280;32448;44.960;-0.698;2023-05-12T06:52:04;101539.13;;;8.80;100.00
46718;BME280;32448;44.960;-0.698;2023-05-12T06:54:32;101539.63;;;8.95;100.00
46718;BME280;32448;44.960;-0.698;2023-05-12T06:56:59;101534.41;;;9.19;100.00
46718;BME280;32448;44.960;-0.698;2023-05-12T06:59:26;101542.31;;;9.45;100.00
46718;BME280;32448;44.960;-0.698;2023-05-12T07:01:54;101546.84;;;9.78;100.00
46718;BME280;32448;44.960;-0.698;2023-05-12T07:04:21;101556.78;;;10.16;100.00
46718;BME280;32448;44.960;-0.698;2023-05-12T07:06:51;101548.81;;;10.69;100.00
46718;BME280;32448;44.960;-0.698;2023-05-12T07:09:18;101550.19;;;10.86;100.00
46718;BME280;32448;44.960;-0.698;2023-05-12T07:11:46;101547.84;;;10.97;100.00
46718;BME280;32448;44.960;-0.698;2023-05-12T07:14:13;101544.78;;;11.11;100.00
46718;BME280;32448;44.960;-0.698;2023-05-12T07:16:40;101540.97;;;11.31;100.00
46718;BME280;32448;44.960;-0.698;2023-05-12T07:19:07;101538.34;;;11.66;100.00
46718;BME280;32448;44.960;-0.698;2023-05-12T07:21:35;101535.50;;;11.90;100.00
46718;BME280;32448;44.960;-0.698;2023-05-12T07:24:03;101528.16;;;12.13;100.00
46718;BME280;32448;44.960;-0.698;2023-05-12T07:26:32;101530.69;;;12.10;100.00
46718;BME280;32448;44.960;-0.698;2023-05-12T07:28:59;101539.91;;;12.30;100.00
46718;BME280;32448;44.960;-0.698;2023-05-12T07:31:27;101532.41;;;12.47;100.00
46718;BME280;32448;44.960;-0.698;2023-05-12T07:33:54;101526.53;;;12.60;100.00
46718;BME280;32448;44.960;-0.698;2023-05-12T07:36:22;101520.81;;;12.77;100.00
46718;BME280;32448;44.960;-0.698;2023-05-12T07:38:49;101511.75;;;13.07;100.00
46718;BME280;32448;44.960;-0.698;2023-05-12T07:41:18;101515.28;;;13.09;100.00
46718;BME280;32448;44.960;-0.698;2023-05-12T07:43:45;101517.97;;;13.12;100.00
46718;BME280;32448;44.960;-0.698;2023-05-12T07:46:12;101527.19;;;13.35;100.00
46718;BME280;32448;44.960;-0.698;2023-05-12T07:48:39;101489.34;;;13.23;100.00
46718;BME280;32448;44.960;-0.698;2023-05-12T07:51:06;101516.19;;;13.58;100.00
46718;BME280;32448;44.960;-0.698;2023-05-12T07:53:34;101512.75;;;13.62;100.00
46718;BME280;32448;44.960;-0.698;2023-05-12T07:56:01;101515.72;;;13.84;100.00
46718;BME280;32448;44.960;-0.698;2023-05-12T07:58:29;101515.91;;;13.95;100.00
46718;BME280;32448;44.960;-0.698;2023-05-12T08:00:56;101516.00;;;14.03;100.00
46718;BME280;32448;44.960;-0.698;2023-05-12T08:03:26;101517.81;;;14.07;100.00
46718;BME280;32448;44.960;-0.698;2023-05-12T08:05:53;101516.31;;;14.23;100.00
46718;BME280;32448;44.960;-0.698;2023-05-12T08:08:21;101514.66;;;14.31;100.00
46718;BME280;32448;44.960;-0.698;2023-05-12T08:10:48;101509.41;;;14.31;100.00
46718;BME280;32448;44.960;-0.698;2023-05-12T08:13:15;101518.31;;;14.40;100.00
46718;BME280;32448;44.960;-0.698;2023-05-12T08:15:43;101519.28;;;14.45;100.00
46718;BME280;32448;44.960;-0.698;2023-05-12T08:18:12;101522.06;;;14.59;100.00
46718;BME280;32448;44.960;-0.698;2023-05-12T08:20:39;101523.94;;;14.66;100.00
46718;BME280;32448;44.960;-0.698;2023-05-12T08:23:06;101525.09;;;14.89;100.00
46718;BME280;32448;44.960;-0.698;2023-05-12T08:25:33;101524.94;;;14.77;100.00
46718;BME280;32448;44.960;-0.698;2023-05-12T08:28:02;101524.00;;;14.72;100.00
46718;BME280;32448;44.960;-0.698;2023-05-12T08:30:29;101524.69;;;14.59;100.00
46718;BME280;32448;44.960;-0.698;2023-05-12T08:32:56;101521.25;;;14.63;100.00
46718;BME280;32448;44.960;-0.698;2023-05-12T08:35:23;101524.63;;;14.53;100.00
46718;BME280;32448;44.960;-0.698;2023-05-12T08:37:52;101519.34;;;14.51;100.00
46718;BME280;32448;44.960;-0.698;2023-05-12T08:40:20;101522.63;;;14.35;100.00
46718;BME280;32448;44.960;-0.698;2023-05-12T08:42:52;101526.38;;;14.52;100.00
46718;BME280;32448;44.960;-0.698;2023-05-12T08:45:21;101520.78;;;14.98;100.00
46718;BME280;32448;44.960;-0.698;2023-05-12T08:47:49;101524.53;;;15.21;100.00
46718;BME280;32448;44.960;-0.698;2023-05-12T08:50:17;101525.47;;;15.27;100.00
46718;BME280;32448;44.960;-0.698;2023-05-12T08:52:47;101527.09;;;15.12;100.00
46718;BME280;32448;44.960;-0.698;2023-05-12T08:55:15;101523.41;;;14.96;100.00
46718;BME280;32448;44.960;-0.698;2023-05-12T08:57:44;101519.81;;;14.89;100.00
46718;BME280;32448;44.960;-0.698;2023-05-12T09:00:14;101532.03;;;14.84;100.00
46718;BME280;32448;44.960;-0.698;2023-05-12T09:02:42;101525.72;;;14.70;100.00
46718;BME280;32448;44.960;-0.698;2023-05-12T09:05:20;101519.72;;;14.82;100.00
46718;BME280;32448;44.960;-0.698;2023-05-12T09:07:50;101525.16;;;14.97;100.00
46718;BME280;32448;44.960;-0.698;2023-05-12T09:10:18;101522.59;;;15.02;100.00
46718;BME280;32448;44.960;-0.698;2023-05-12T09:13:07;101524.38;;;15.06;100.00
46718;BME280;32448;44.960;-0.698;2023-05-12T09:15:40;101521.59;;;14.90;100.00
46718;BME280;32448;44.960;-0.698;2023-05-12T09:18:08;101522.50;;;14.96;100.00
46718;BME280;32448;44.960;-0.698;2023-05-12T09:20:36;101507.22;;;15.46;100.00
46718;BME280;32448;44.960;-0.698;2023-05-12T09:23:19;101513.38;;;15.49;100.00
46718;BME280;32448;44.960;-0.698;2023-05-12T09:25:46;101522.16;;;15.48;100.00
46718;BME280;32448;44.960;-0.698;2023-05-12T09:28:32;101525.56;;;15.38;100.00
46718;BME280;32448;44.960;-0.698;2023-05-12T09:31:00;101521.91;;;15.21;100.00
46718;BME280;32448;44.960;-0.698;2023-05-12T09:33:27;101525.41;;;15.20;100.00
46718;BME280;32448;44.960;-0.698;2023-05-12T09:35:54;101525.50;;;15.29;100.00
46718;BME280;32448;44.960;-0.698;2023-05-12T09:38:22;101519.63;;;15.56;100.00
46718;BME280;32448;44.960;-0.698;2023-05-12T09:40:49;101518.13;;;15.88;100.00
46718;BME280;32448;44.960;-0.698;2023-05-12T09:43:16;101520.91;;;16.14;100.00
46718;BME280;32448;44.960;-0.698;2023-05-12T09:45:43;101519.34;;;16.44;100.00
46718;BME280;32448;44.960;-0.698;2023-05-12T09:48:13;101512.31;;;16.43;100.00
46718;BME280;32448;44.960;-0.698;2023-05-12T09:50:44;101513.94;;;16.24;100.00
46718;BME280;32448;44.960;-0.698;2023-05-12T09:53:13;101512.09;;;16.08;100.00
46718;BME280;32448;44.960;-0.698;2023-05-12T09:55:42;101515.59;;;16.00;100.00
46718;BME280;32448;44.960;-0.698;2023-05-12T09:58:10;101519.91;;;15.89;100.00
46718;BME280;32448;44.960;-0.698;2023-05-12T10:00:37;101525.16;;;15.88;100.00
46718;BME280;32448;44.960;-0.698;2023-05-12T10:03:25;101516.28;;;15.75;100.00
46718;BME280;32448;44.960;-0.698;2023-05-12T10:06:00;101526.75;;;15.69;100.00
46718;BME280;32448;44.960;-0.698;2023-05-12T10:08:33;101525.88;;;15.65;100.00
46718;BME280;32448;44.960;-0.698;2023-05-12T10:11:02;101520.53;;;15.59;100.00
46718;BME280;32448;44.960;-0.698;2023-05-12T10:13:31;101514.38;;;15.60;100.00
46718;BME280;32448;44.960;-0.698;2023-05-12T10:15:59;101510.91;;;15.64;100.00
46718;BME280;32448;44.960;-0.698;2023-05-12T10:18:27;101516.28;;;15.75;100.00
46718;BME280;32448;44.960;-0.698;2023-05-12T10:20:54;101512.78;;;15.78;100.00
46718;BME280;32448;44.960;-0.698;2023-05-12T10:23:23;101510.28;;;15.96;100.00
46718;BME280;32448;44.960;-0.698;2023-05-12T10:25:51;101506.88;;;16.18;100.00
46718;BME280;32448;44.960;-0.698;2023-05-12T10:28:19;101505.13;;;16.17;100.00
46718;BME280;32448;44.960;-0.698;2023-05-12T10:30:46;101501.66;;;16.21;100.00
46718;BME280;32448;44.960;-0.698;2023-05-12T10:33:14;101505.28;;;16.48;100.00
46718;BME280;32448;44.960;-0.698;2023-05-12T10:35:42;101504.34;;;16.38;100.00
46718;BME280;32448;44.960;-0.698;2023-05-12T10:38:11;101500.84;;;16.34;100.00
46718;BME280;32448;44.960;-0.698;2023-05-12T10:40:50;101504.34;;;16.36;100.00
46718;BME280;32448;44.960;-0.698;2023-05-12T10:43:21;101497.38;;;16.51;100.00
46718;BME280;32448;44.960;-0.698;2023-05-12T10:46:07;101486.84;;;16.60;100.00
46718;BME280;32448;44.960;-0.698;2023-05-12T10:48:35;101479.88;;;16.69;100.00
46718;BME280;32448;44.960;-0.698;2023-05-12T10:51:08;101480.84;;;16.88;100.00
46718;BME280;32448;44.960;-0.698;2023-05-12T10:53:38;101479.13;;;17.10;100.00
46718;BME280;32448;44.960;-0.698;2023-05-12T10:56:23;101475.59;;;17.47;100.00
46718;BME280;32448;44.960;-0.698;2023-05-12T10:59:07;101477.41;;;17.67;100.00
46718;BME280;32448;44.960;-0.698;2023-05-12T11:01:36;101465.00;;;17.93;100.00
46718;BME280;32448;44.960;-0.698;2023-05-12T11:04:15;101482.59;;;18.12;100.00
46718;BME280;32448;44.960;-0.698;2023-05-12T11:06:43;101470.31;;;17.96;100.00
46718;BME280;32448;44.960;-0.698;2023-05-12T11:09:12;101475.63;;;17.67;100.00
46718;BME280;32448;44.960;-0.698;2023-05-12T11:11:42;101473.84;;;17.43;100.00
46718;BME280;32448;44.960;-0.698;2023-05-12T11:14:11;101472.09;;;17.21;100.00
46718;BME280;32448;44.960;-0.698;2023-05-12T11:16:45;101473.84;;;17.12;100.00
46718;BME280;32448;44.960;-0.698;2023-05-12T11:19:12;101469.38;;;17.01;100.00
46718;BME280;32448;44.960;-0.698;2023-05-12T11:21:39;101475.56;;;17.03;100.00
46718;BME280;32448;44.960;-0.698;2023-05-12T11:24:07;101469.44;;;17.27;100.00
46718;BME280;32448;44.960;-0.698;2023-05-12T11:26:39;101467.66;;;17.46;100.00
46718;BME280;32448;44.960;-0.698;2023-05-12T11:29:07;101465.06;;;17.44;100.00
46718;BME280;32448;44.960;-0.698;2023-05-12T11:31:34;101459.75;;;17.52;100.00
46718;BME280;32448;44.960;-0.698;2023-05-12T11:34:02;101454.44;;;17.90;100.00
46718;BME280;32448;44.960;-0.698;2023-05-12T11:36:42;101463.19;;;18.12;100.00
46718;BME280;32448;44.960;-0.698;2023-05-12T11:39:18;101456.97;;;18.28;100.00
46718;BME280;32448;44.960;-0.698;2023-05-12T11:41:46;101452.47;;;18.48;100.00
46718;BME280;32448;44.960;-0.698;2023-05-12T11:44:19;101465.63;;;18.70;100.00
46718;BME280;32448;44.960;-0.698;2023-05-12T11:46:57;101453.31;;;18.61;100.00
46718;BME280;32448;44.960;-0.698;2023-05-12T11:49:26;101457.59;;;18.88;100.00
46718;BME280;32448;44.960;-0.698;2023-05-12T11:51:55;101440.16;;;18.41;100.00
46718;BME280;32448;44.960;-0.698;2023-05-12T11:54:22;101446.22;;;18.68;100.00
46718;BME280;32448;44.960;-0.698;2023-05-12T11:56:51;101442.56;;;18.90;100.00
46718;BME280;32448;44.960;-0.698;2023-05-12T11:59:30;101434.66;;;18.87;100.00
46718;BME280;32448;44.960;-0.698;2023-05-12T12:01:59;101428.41;;;18.97;100.00
46718;BME280;32448;44.960;-0.698;2023-05-12T12:04:31;101443.25;;;19.21;100.00
46718;BME280;32448;44.960;-0.698;2023-05-12T12:06:59;101434.59;;;18.90;100.00
46718;BME280;32448;44.960;-0.698;2023-05-12T12:09:31;101440.63;;;19.12;100.00
46718;BME280;32448;44.960;-0.698;2023-05-12T12:12:02;101435.31;;;19.18;100.00
46718;BME280;32448;44.960;-0.698;2023-05-12T12:14:30;101435.47;;;18.94;100.00
46718;BME280;32448;44.960;-0.698;2023-05-12T12:16:58;101422.00;;;19.24;100.00
46718;BME280;32448;44.960;-0.698;2023-05-12T12:19:26;101429.94;;;19.25;100.00
46718;BME280;32448;44.960;-0.698;2023-05-12T12:21:54;101427.47;;;19.03;100.00
46718;BME280;32448;44.960;-0.698;2023-05-12T12:24:23;101428.22;;;19.21;100.00
46718;BME280;32448;44.960;-0.698;2023-05-12T12:26:51;101431.97;;;18.90;100.00
46718;BME280;32448;44.960;-0.698;2023-05-12T12:29:18;101434.66;;;18.84;100.00
46718;BME280;32448;44.960;-0.698;2023-05-12T12:31:45;101438.25;;;18.77;100.00
46718;BME280;32448;44.960;-0.698;2023-05-12T12:34:13;101433.84;;;18.74;100.00
46718;BME280;32448;44.960;-0.698;2023-05-12T12:36:40;101431.28;;;18.59;100.00
46718;BME280;32448;44.960;-0.698;2023-05-12T12:39:07;101428.63;;;18.53;100.00
46718;BME280;32448;44.960;-0.698;2023-05-12T12:41:34;101436.56;;;18.62;100.00
46718;BME280;32448;44.960;-0.698;2023-05-12T12:44:01;101435.66;;;18.57;100.00
46718;BME280;32448;44.960;-0.698;2023-05-12T12:46:29;101434.81;;;18.52;100.00
46718;BME280;32448;44.960;-0.698;2023-05-12T12:48:56;101440.09;;;18.53;100.00
46718;BME280;32448;44.960;-0.698;2023-05-12T12:51:24;101387.34;;;18.14;100.00
46718;BME280;32448;44.960;-0.698;2023-05-12T12:54:10;101434.00;;;18.39;100.00
46718;BME280;32448;44.960;-0.698;2023-05-12T12:56:37;101440.25;;;18.22;100.00
46718;BME280;32448;44.960;-0.698;2023-05-12T12:59:05;101438.41;;;18.36;100.00
46718;BME280;32448;44.960;-0.698;2023-05-12T13:01:33;101433.09;;;18.37;100.00
46718;BME280;32448;44.960;-0.698;2023-05-12T13:04:01;101441.00;;;18.45;100.00